Main page
METAR-TAF:

METAR-TAF

Airports :

Shaikh Zayed International Airport

Rahim Yar Khan, Pakistan

latitude: 28-23-02N, longitude: 70-16-47E, elevation: 83 m

METAR: missing

Time: 18:36 (13:36 UTC)

Forecast

The report was made 3 hours and 36 minutes ago, at 10:00 UTC
Forecast valid from 28 at 12 UTC to 29 at 06 UTC
Wind 10 kt from the Southwest
Visibility: 5000 m
Few clouds at a height of 12000 ft
haze
Probability 30% :
Temporary
from 28 at 12 UTC to 28 at 16 UTC
Wind 20 kt from the Southwest
Visibility: 2500 m
Blowing dust

TAF: OPRK 281000Z 2812/2906 23010KT 5000 HZ FEW120 TN26/2901Z PROB30 TEMPO 2812/2816 23020KT 2500 BLDU NSC

Weather observations and forecasts of more than 4000 airports (METAR and TAF reports).

The available stations are represented by yellow and red dots on the map.

Hover mouse over dot to see the name of the station.

Then click to see weather observations and forecasts.

To change the map : click on the green buttons with a black cross to zoom in, on the green button with a dash to zoom out, or on the green arrows for adjacent maps.


METAR-TAF: